Time;durP1;ratioP1;P1;durP2;ratioP2;P2;SDS_P1;SDS_P2;PMS_P1;PMS_P2;Temp;Humidity;BMP_temperature;BMP_pressure;BME280_temperature;BME280_humidity;BME280_pressure;Samples;Min_cycle;Max_cycle;Signal;HPM_P1;HPM_P2
2021/11/12 00:14:24;;;;;;;;;;;;;;;5.33;63.35;99689.76;102963;1322;97883;-79
2021/11/12 00:16:55;;;;;;;34.00;17.70;;;;;;;5.27;63.41;99689.31;102982;1321;98014;-78
2021/11/12 00:19:24;;;;;;;33.80;18.10;;;;;;;5.24;63.49;99693.48;103035;1319;111524;-78
2021/11/12 00:21:52;;;;;;;31.50;17.10;;;;;;;5.21;63.40;99687.98;102994;1320;97879;-77
2021/11/12 00:24:20;;;;;;;34.20;18.60;;;;;;;5.17;63.39;99691.64;102853;1319;107814;-79
2021/11/12 00:26:48;;;;;;;31.70;17.60;;;;;;;5.14;63.50;99691.74;102775;1320;98025;-79
2021/11/12 00:29:16;;;;;;;32.00;17.60;;;;;;;5.11;63.42;99694.36;102985;1324;97914;-80
2021/11/12 00:31:58;;;;;;;32.90;17.00;;;;;;;5.08;63.40;99695.52;102969;1320;113351;-81
2021/11/12 00:39:58;;;;;;;32.70;17.70;;;;;;;5.04;63.83;99699.39;102566;1324;99015;-79
2021/11/12 00:42:36;;;;;;;36.20;18.80;;;;;;;5.04;63.62;99700.95;102796;1322;95397;-80
2021/11/12 00:45:07;;;;;;;36.00;20.00;;;;;;;5.02;63.66;99702.08;102797;1319;111441;-80
2021/11/12 00:53:40;;;;;;;35.80;19.70;;;;;;;4.99;63.80;99702.05;103030;1319;97893;-81
2021/11/12 00:55:36;;;;;;;37.30;19.80;;;;;;;4.99;63.87;99702.92;102994;1320;95851;-81
2021/11/12 00:58:07;;;;;;;36.30;19.50;;;;;;;4.98;63.95;99696.27;103191;1320;110196;-80
2021/11/12 01:00:36;;;;;;;34.10;19.70;;;;;;;4.98;63.93;99695.41;103198;1324;99107;-80
2021/11/12 01:03:04;;;;;;;40.10;21.80;;;;;;;4.97;63.85;99692.46;103154;1318;106484;-82
2021/11/12 01:05:32;;;;;;;36.10;19.90;;;;;;;4.95;63.98;99692.16;103008;1319;98014;-81
2021/11/12 01:08:01;;;;;;;38.00;21.80;;;;;;;4.98;63.97;99695.94;102993;1323;98050;-81
2021/11/12 01:10:30;;;;;;;38.80;21.30;;;;;;;4.99;64.01;99694.48;102962;1322;111477;-81
2021/11/12 01:12:59;;;;;;;40.50;21.00;;;;;;;4.97;64.23;99693.66;103021;1319;98011;-80
2021/11/12 01:15:28;;;;;;;39.20;22.00;;;;;;;4.98;64.24;99692.58;102957;1319;107599;-79
2021/11/12 01:17:56;;;;;;;35.40;20.20;;;;;;;4.99;64.24;99691.83;102967;1322;96192;-78
2021/11/12 01:20:23;;;;;;;35.10;20.10;;;;;;;5.00;64.15;99687.75;102888;1319;97935;-79
2021/11/12 01:22:51;;;;;;;42.00;21.10;;;;;;;5.01;64.14;99684.73;102869;1325;111547;-79
2021/11/12 01:25:22;;;;;;;40.40;22.90;;;;;;;5.02;64.25;99682.76;103031;1326;97866;-79
2021/11/12 01:27:52;;;;;;;32.40;18.10;;;;;;;5.03;64.21;99682.35;102826;1325;107755;-78
2021/11/12 01:30:20;;;;;;;40.80;23.10;;;;;;;5.05;64.32;99685.79;103126;1319;97998;-78
2021/11/12 01:32:50;;;;;;;45.20;25.20;;;;;;;5.08;64.48;99686.73;102873;1324;96329;-79
2021/11/12 01:35:20;;;;;;;42.20;23.70;;;;;;;5.12;64.47;99684.47;102763;1326;111499;-79
2021/11/12 01:37:50;;;;;;;43.30;24.40;;;;;;;5.14;64.34;99679.96;102968;1320;99039;-79
2021/11/12 01:40:26;;;;;;;42.60;24.50;;;;;;;5.15;64.38;99677.65;102936;1324;107919;-78
2021/11/12 01:43:18;;;;;;;46.30;25.20;;;;;;;5.16;64.40;99681.13;102927;1325;98044;-79
2021/11/12 01:59:11;;;;;;;48.10;28.20;;;;;;;5.19;64.70;99672.41;102974;1319;97896;-79
2021/11/12 02:02:06;;;;;;;49.90;29.80;;;;;;;5.19;64.73;99672.06;103028;1322;111490;-77
2021/11/12 02:04:37;;;;;;;55.20;31.60;;;;;;;5.18;64.80;99671.20;103043;1319;97655;-76
2021/11/12 02:07:05;;;;;;;56.70;32.40;;;;;;;5.19;64.77;99667.14;102931;1323;107891;-77
2021/11/12 02:09:36;;;;;;;58.20;34.80;;;;;;;5.18;64.93;99664.86;102902;1318;95242;-78
2021/11/12 02:14:47;;;;;;;57.00;33.90;;;;;;;5.20;65.02;99662.17;103014;1319;111485;-76
2021/11/12 02:17:20;;;;;;;58.70;33.80;;;;;;;5.19;64.96;99664.47;103048;1323;97935;-78
2021/11/12 02:19:58;;;;;;;58.70;33.60;;;;;;;5.19;65.11;99664.84;102958;1324;108475;-78
2021/11/12 02:22:34;;;;;;;58.40;36.00;;;;;;;5.20;65.12;99661.45;102925;1319;97992;-80
2021/11/12 02:25:21;;;;;;;64.40;36.60;;;;;;;5.20;65.12;99664.61;103013;1322;97792;-78
2021/11/12 02:27:56;;;;;;;61.90;37.10;;;;;;;5.22;65.08;99663.15;103002;1320;111555;-80
2021/11/12 02:30:28;;;;;;;61.20;35.30;;;;;;;5.23;65.17;99664.70;103080;1323;96429;-79
2021/11/12 02:33:07;;;;;;;60.80;36.90;;;;;;;5.23;65.14;99665.40;103011;1322;107432;-79
2021/11/12 02:35:42;;;;;;;64.40;37.50;;;;;;;5.23;65.12;99659.08;102981;1319;97904;-78
2021/11/12 02:38:12;;;;;;;61.50;36.70;;;;;;;5.24;65.25;99660.09;102909;1321;97773;-77
2021/11/12 02:40:40;;;;;;;65.50;37.50;;;;;;;5.25;65.32;99655.64;103088;1319;111034;-80
2021/11/12 02:43:08;;;;;;;66.00;38.70;;;;;;;5.25;65.36;99655.48;102669;1320;154063;-77
2021/11/12 02:45:37;;;;;;;66.60;38.30;;;;;;;5.25;65.33;99654.39;103031;1319;108590;-78
2021/11/12 02:48:06;;;;;;;64.10;39.10;;;;;;;5.25;65.37;99655.62;102991;1320;97979;-79
2021/11/12 02:50:34;;;;;;;62.00;38.10;;;;;;;5.26;65.41;99652.61;103032;1319;97973;-79
2021/11/12 02:53:05;;;;;;;65.00;40.40;;;;;;;5.27;65.41;99647.84;102970;1323;111215;-81
2021/11/12 02:55:33;;;;;;;70.50;40.20;;;;;;;5.26;65.55;99647.00;103055;1319;97981;-81
2021/11/12 02:58:01;;;;;;;71.20;39.70;;;;;;;5.26;65.54;99642.22;103002;1319;107582;-81
2021/11/12 03:00:30;;;;;;;67.50;40.00;;;;;;;5.26;65.60;99641.19;103000;1319;98028;-79
2021/11/12 03:02:58;;;;;;;64.30;37.10;;;;;;;5.25;65.61;99643.15;103040;1319;97961;-77
2021/11/12 03:05:31;;;;;;;58.60;34.50;;;;;;;5.23;65.56;99646.92;103010;1325;111507;-77
2021/11/12 03:08:01;;;;;;;57.00;32.50;;;;;;;5.20;65.68;99643.02;103030;1323;98499;-76
2021/11/12 03:10:30;;;;;;;54.50;32.00;;;;;;;5.18;65.60;99643.97;103016;1326;106773;-78
2021/11/12 03:12:58;;;;;;;52.60;29.30;;;;;;;5.15;65.61;99643.55;102876;1319;95354;-78
2021/11/12 03:15:26;;;;;;;51.00;29.70;;;;;;;5.12;65.51;99648.63;102851;1320;97912;-78
2021/11/12 03:17:56;;;;;;;49.60;28.80;;;;;;;5.09;65.56;99648.40;103025;1323;110452;-77
2021/11/12 03:20:27;;;;;;;51.00;29.50;;;;;;;5.04;65.59;99649.45;103109;1318;95274;-78
2021/11/12 03:23:08;;;;;;;49.70;28.90;;;;;;;5.01;65.68;99651.84;103046;1318;108422;-78
2021/11/12 03:29:00;;;;;;;48.70;28.70;;;;;;;4.96;65.84;99647.68;102404;1328;97998;-79
2021/11/12 03:56:48;;;;;;;49.70;28.30;;;;;;;4.97;66.13;99659.77;102977;1318;95363;-79
2021/11/12 04:02:11;;;;;;;48.70;28.10;;;;;;;5.02;66.21;99664.13;102864;1322;96392;-77
2021/11/12 05:33:42;;;;;;;62.70;35.30;;;;;;;5.09;66.79;99701.48;102965;1322;97961;-79
2021/11/12 05:44:41;;;;;;;68.00;36.20;;;;;;;5.11;67.05;99714.58;102943;1321;97849;-78
2021/11/12 05:55:19;;;;;;;69.30;38.00;;;;;;;5.04;66.90;99722.73;102976;1319;108577;-78
2021/11/12 05:57:49;;;;;;;64.20;35.80;;;;;;;4.98;66.92;99724.55;102990;1319;95274;-78
2021/11/12 06:00:18;;;;;;;63.20;36.70;;;;;;;4.94;66.99;99724.56;102999;1319;97897;-79
2021/11/12 06:02:46;;;;;;;70.30;39.00;;;;;;;4.93;67.09;99727.57;103088;1319;111508;-82
2021/11/12 06:05:18;;;;;;;66.40;37.50;;;;;;;4.92;67.28;99726.20;103085;1319;97053;-80
2021/11/12 06:07:48;;;;;;;64.60;37.40;;;;;;;4.92;67.16;99730.41;103079;1319;107809;-79
2021/11/12 06:10:19;;;;;;;64.60;37.50;;;;;;;4.91;67.08;99729.20;103041;1319;97071;-81
2021/11/12 06:12:48;;;;;;;65.60;36.50;;;;;;;4.92;67.11;99735.19;103007;1319;98466;-79
2021/11/12 06:15:17;;;;;;;67.30;38.90;;;;;;;4.89;67.18;99734.94;102979;1318;111456;-79
2021/11/12 06:17:46;;;;;;;62.80;36.80;;;;;;;4.87;67.09;99735.55;103023;1320;97969;-80
2021/11/12 06:20:15;;;;;;;63.50;36.00;;;;;;;4.87;67.31;99734.84;102968;1322;107825;-79
2021/11/12 06:22:45;;;;;;;69.40;39.90;;;;;;;4.87;67.32;99736.94;102933;1322;97885;-80
2021/11/12 06:25:13;;;;;;;67.00;38.30;;;;;;;4.88;67.38;99738.33;103083;1319;99063;-82
2021/11/12 06:27:41;;;;;;;71.10;41.90;;;;;;;4.88;67.44;99740.59;102836;1319;111561;-80
2021/11/12 06:30:10;;;;;;;64.30;37.30;;;;;;;4.90;67.45;99744.20;102937;1322;97959;-82
2021/11/12 06:32:41;;;;;;;61.50;36.40;;;;;;;4.91;67.43;99738.89;103041;1323;107450;-81
2021/11/12 06:35:12;;;;;;;64.00;37.30;;;;;;;4.90;67.53;99744.55;102952;1318;97973;-82
2021/11/12 06:37:43;;;;;;;67.80;37.10;;;;;;;4.91;67.44;99749.96;102954;1319;97934;-82
2021/11/12 06:40:20;;;;;;;66.40;36.70;;;;;;;4.93;67.44;99750.58;102986;1319;111464;-83
2021/11/12 06:51:28;;;;;;;71.40;39.60;;;;;;;5.02;67.53;99748.69;102908;1322;97910;-77
2021/11/12 06:53:56;;;;;;;69.80;38.90;;;;;;;5.04;67.74;99749.66;102699;1322;111548;-75
2021/11/12 06:56:26;;;;;;;71.20;40.30;;;;;;;5.08;67.93;99748.96;102944;1319;97892;-73
2021/11/12 06:58:59;;;;;;;65.00;37.60;;;;;;;5.13;67.80;99750.87;102940;1319;108084;-73
2021/11/12 07:01:27;;;;;;;66.30;35.30;;;;;;;5.17;67.85;99751.59;102799;1318;97912;-76
2021/11/12 07:04:01;;;;;;;69.80;37.40;;;;;;;5.19;67.68;99750.31;102939;1319;97927;-75
2021/11/12 07:06:29;;;;;;;68.10;37.80;;;;;;;5.19;67.68;99747.29;102916;1318;111608;-73
2021/11/12 07:08:57;;;;;;;62.20;35.10;;;;;;;5.21;67.71;99746.36;103038;1319;95878;-74
2021/11/12 07:11:25;;;;;;;70.60;37.40;;;;;;;5.23;67.80;99745.42;102995;1322;107761;-74
2021/11/12 07:13:53;;;;;;;70.40;38.70;;;;;;;5.22;67.87;99745.44;102957;1322;96010;-73
2021/11/12 07:16:23;;;;;;;70.00;38.50;;;;;;;5.24;68.09;99745.71;102945;1319;97995;-73
2021/11/12 07:18:54;;;;;;;66.50;37.40;;;;;;;5.27;67.81;99743.98;102849;1318;111250;-74
2021/11/12 07:21:24;;;;;;;67.70;38.10;;;;;;;5.28;67.99;99746.95;102849;1318;95969;-75
2021/11/12 07:24:01;;;;;;;69.30;38.10;;;;;;;5.32;68.11;99746.10;102888;1318;107873;-71
2021/11/12 07:26:30;;;;;;;67.30;36.60;;;;;;;5.35;67.89;99750.35;102923;1316;97929;-71
2021/11/12 07:28:58;;;;;;;61.50;35.40;;;;;;;5.37;67.83;99752.58;102928;1318;97926;-71
2021/11/12 07:31:42;;;;;;;64.90;36.80;;;;;;;5.38;68.00;99751.30;102923;1318;111578;-72
2021/11/12 07:34:11;;;;;;;65.80;38.20;;;;;;;5.41;68.10;99751.55;102960;1318;97914;-71
2021/11/12 07:36:52;;;;;;;70.60;39.70;;;;;;;5.45;68.03;99755.27;102942;1318;107961;-72
2021/11/12 07:39:39;;;;;;;67.90;38.40;;;;;;;5.46;68.02;99758.02;102909;1318;96342;-70
2021/11/12 07:42:20;;;;;;;68.10;38.80;;;;;;;5.46;68.05;99753.61;102867;1318;98244;-72
2021/11/12 07:47:24;;;;;;;67.80;34.90;;;;;;;5.41;68.09;99747.66;102958;1323;96779;-72
2021/11/12 07:49:56;;;;;;;63.60;34.70;;;;;;;5.39;67.90;99741.77;102958;1319;107862;-71
2021/11/12 07:52:30;;;;;;;62.90;35.20;;;;;;;5.37;67.94;99740.80;102897;1319;97922;-71
2021/11/12 07:55:00;;;;;;;65.20;34.60;;;;;;;5.34;68.02;99740.36;103077;1325;97905;-72
2021/11/12 07:57:29;;;;;;;66.40;36.80;;;;;;;5.34;68.18;99744.23;102986;1319;111580;-74
2021/11/12 07:59:58;;;;;;;72.20;38.60;;;;;;;5.37;68.29;99746.60;102993;1319;97912;-73
2021/11/12 08:02:26;;;;;;;69.30;36.20;;;;;;;5.40;68.11;99748.77;102959;1319;107908;-72
2021/11/12 08:05:00;;;;;;;69.90;38.90;;;;;;;5.42;68.27;99745.19;102935;1319;97889;-71
2021/11/12 08:07:32;;;;;;;69.20;37.10;;;;;;;5.44;68.25;99748.77;102875;1324;97834;-71
2021/11/12 08:10:03;;;;;;;71.40;38.20;;;;;;;5.45;68.12;99743.98;102840;1319;111480;-72
2021/11/12 08:20:31;;;;;;;75.10;39.60;;;;;;;5.47;68.46;99750.95;102911;1319;97902;-73
2021/11/12 08:23:02;;;;;;;70.70;37.50;;;;;;;5.47;68.33;99748.48;103066;1318;111554;-71
2021/11/12 08:26:10;;;;;;;71.70;38.00;;;;;;;5.44;68.07;99752.64;102840;1319;98030;-72
2021/11/12 08:28:46;;;;;;;70.40;37.10;;;;;;;5.37;68.15;99751.34;102885;1318;105980;-72
2021/11/12 08:34:20;;;;;;;72.10;38.50;;;;;;;5.35;68.40;99755.82;102824;1319;96637;-71
2021/11/12 08:37:16;;;;;;;72.40;38.00;;;;;;;5.40;68.52;99754.59;102672;1323;111476;-71
2021/11/12 08:42:52;;;;;;;77.40;41.60;;;;;;;5.45;68.49;99749.63;102433;1318;107861;-73
2021/11/12 08:45:24;;;;;;;79.70;41.20;;;;;;;5.49;68.68;99749.13;102784;1319;97999;-72
2021/11/12 08:48:00;;;;;;;80.70;43.20;;;;;;;5.55;68.65;99744.66;102760;1318;98038;-72
2021/11/12 08:50:29;;;;;;;80.50;41.80;;;;;;;5.58;68.53;99741.20;102891;1318;111724;-72
2021/11/12 08:53:05;;;;;;;77.80;42.60;;;;;;;5.58;68.54;99742.42;102835;1318;98542;-73
2021/11/12 08:55:36;;;;;;;84.40;43.00;;;;;;;5.58;68.52;99742.41;102846;1323;108020;-72
2021/11/12 08:58:11;;;;;;;81.70;41.30;;;;;;;5.58;68.62;99738.38;102794;1319;97893;-73
2021/11/12 09:00:43;;;;;;;83.70;44.30;;;;;;;5.60;68.51;99741.80;102948;1323;98036;-74
2021/11/12 09:03:12;;;;;;;94.90;48.30;;;;;;;5.60;68.60;99744.08;102831;1318;110574;-73
2021/11/12 09:05:40;;;;;;;93.70;48.30;;;;;;;5.60;68.52;99740.57;102849;1319;98047;-72
2021/11/12 09:08:08;;;;;;;100.50;47.90;;;;;;;5.62;68.57;99744.17;102755;1318;107908;-72
2021/11/12 09:10:37;;;;;;;98.80;49.10;;;;;;;5.64;68.59;99740.39;102775;1318;97900;-72
2021/11/12 09:13:17;;;;;;;98.90;48.90;;;;;;;5.64;68.73;99741.47;102710;1318;97910;-72
2021/11/12 09:15:51;;;;;;;101.40;49.90;;;;;;;5.64;68.42;99743.91;102766;1318;111661;-70
2021/11/12 09:18:23;;;;;;;109.10;50.10;;;;;;;5.60;68.62;99742.16;102837;1319;96647;-72
2021/11/12 09:20:53;;;;;;;109.10;49.90;;;;;;;5.59;68.56;99742.39;102791;1318;108041;-75
2021/11/12 09:23:21;;;;;;;111.00;52.10;;;;;;;5.59;68.56;99740.08;102818;1318;97773;-75
2021/11/12 09:25:51;;;;;;;109.00;52.30;;;;;;;5.62;68.86;99742.27;102879;1318;97894;-73
2021/11/12 09:28:18;;;;;;;119.40;53.90;;;;;;;5.64;68.73;99742.35;102854;1318;111534;-70
2021/11/12 09:30:47;;;;;;;112.00;51.70;;;;;;;5.62;68.69;99740.47;102657;1318;97942;-71
2021/11/12 09:33:16;;;;;;;102.20;48.60;;;;;;;5.60;68.71;99740.36;102640;1321;107853;-73
2021/11/12 09:35:43;;;;;;;103.60;49.40;;;;;;;5.59;68.70;99735.14;102790;1318;97912;-71
2021/11/12 09:38:12;;;;;;;101.30;47.10;;;;;;;5.61;68.89;99732.58;102908;1318;95267;-71
2021/11/12 09:40:40;;;;;;;105.80;48.30;;;;;;;5.63;68.81;99732.19;102731;1318;111538;-72
2021/11/12 09:43:08;;;;;;;96.40;46.30;;;;;;;5.63;68.77;99730.23;102679;1318;97962;-71
2021/11/12 09:45:36;;;;;;;91.90;44.40;;;;;;;5.65;68.67;99729.98;102651;1319;108523;-73
2021/11/12 09:48:04;;;;;;;95.60;45.10;;;;;;;5.65;68.81;99727.16;102663;1318;95719;-71
2021/11/12 09:50:34;;;;;;;96.50;48.80;;;;;;;5.67;68.84;99726.55;102713;1318;95956;-73
2021/11/12 09:53:03;;;;;;;106.30;47.50;;;;;;;5.70;68.65;99725.91;102711;1318;111580;-71
2021/11/12 09:55:33;;;;;;;101.00;50.20;;;;;;;5.72;68.69;99718.61;102784;1319;97954;-71
2021/11/12 09:58:02;;;;;;;103.30;51.10;;;;;;;5.75;68.93;99714.59;102885;1318;107383;-72
2021/11/12 10:00:33;;;;;;;104.10;47.30;;;;;;;5.80;68.77;99708.59;102813;1318;97995;-72
2021/11/12 10:03:03;;;;;;;100.60;46.90;;;;;;;5.85;68.86;99705.41;102745;1318;97991;-73
2021/11/12 10:05:45;;;;;;;89.00;42.40;;;;;;;5.87;68.84;99704.27;102747;1321;111628;-72
2021/11/12 10:08:22;;;;;;;95.50;46.00;;;;;;;5.89;68.83;99705.59;102837;1315;99057;-71
2021/11/12 10:10:54;;;;;;;95.10;45.70;;;;;;;5.90;68.90;99706.42;102678;1318;107947;-70
2021/11/12 10:13:31;;;;;;;95.30;46.00;;;;;;;5.91;68.89;99710.59;102707;1318;98629;-73
2021/11/12 10:19:09;;;;;;;97.40;48.30;;;;;;;5.90;68.85;99700.75;102993;1318;111683;-74
2021/11/12 10:21:48;;;;;;;96.40;47.50;;;;;;;5.94;69.12;99698.31;102888;1318;98094;-71
2021/11/12 10:24:26;;;;;;;89.30;44.10;;;;;;;5.96;68.87;99698.91;102865;1319;107852;-71
2021/11/12 10:27:01;;;;;;;94.50;47.40;;;;;;;5.99;69.06;99696.35;102800;1317;98445;-74
2021/11/12 10:29:34;;;;;;;95.20;48.40;;;;;;;6.03;69.16;99694.98;102840;1318;97606;-72
2021/11/12 10:32:09;;;;;;;95.30;46.20;;;;;;;6.06;69.04;99696.77;102859;1322;111528;-72
2021/11/12 10:34:41;;;;;;;95.00;45.50;;;;;;;6.08;69.04;99695.27;102951;1323;97904;-73
2021/11/12 10:37:14;;;;;;;87.60;43.10;;;;;;;6.08;69.08;99697.92;102774;1318;107899;-72
2021/11/12 10:39:46;;;;;;;87.60;43.10;;;;;;;6.08;69.18;99696.66;102962;1319;97872;-72
2021/11/12 10:42:23;;;;;;;92.00;46.00;;;;;;;6.11;69.15;99700.60;102865;1319;217146;-72
2021/11/12 10:44:59;;;;;;;95.80;46.40;;;;;;;6.12;69.30;99690.69;102734;1322;111502;-72
2021/11/12 10:47:33;;;;;;;97.90;46.20;;;;;;;6.15;69.24;99686.87;103161;1319;98025;-71
2021/11/12 10:50:09;;;;;;;99.70;48.60;;;;;;;6.16;69.13;99681.73;102996;1319;107831;-71
2021/11/12 10:52:41;;;;;;;96.20;46.40;;;;;;;6.17;69.14;99682.18;102825;1320;97849;-73
2021/11/12 10:55:16;;;;;;;103.10;48.60;;;;;;;6.21;69.17;99682.04;103029;1319;97980;-71
2021/11/12 10:57:53;;;;;;;97.70;47.10;;;;;;;6.18;69.16;99674.96;102971;1319;111521;-73
2021/11/12 11:00:26;;;;;;;104.10;50.60;;;;;;;6.16;69.12;99672.94;102853;1319;95275;-73
2021/11/12 11:02:57;;;;;;;100.80;46.50;;;;;;;6.13;68.99;99672.87;102901;1319;107901;-72
2021/11/12 11:05:44;;;;;;;97.80;45.30;;;;;;;6.11;68.98;99673.67;102919;1319;95188;-73
2021/11/12 11:08:21;;;;;;;95.60;47.10;;;;;;;6.10;69.00;99671.38;102894;1318;97889;-74
2021/11/12 11:10:55;;;;;;;93.10;44.30;;;;;;;6.06;69.23;99667.38;102993;1318;111485;-72
2021/11/12 11:13:31;;;;;;;98.30;47.20;;;;;;;6.04;69.22;99664.64;102945;1319;97904;-72
2021/11/12 11:16:08;;;;;;;97.60;45.30;;;;;;;6.03;69.17;99663.65;102925;1319;107845;-71
2021/11/12 11:18:50;;;;;;;102.40;47.60;;;;;;;6.01;69.26;99658.96;102745;1322;95956;-71
2021/11/12 11:23:56;;;;;;;98.10;45.90;;;;;;;5.93;69.16;99655.73;102976;1319;111817;-72
2021/11/12 11:26:27;;;;;;;95.00;46.50;;;;;;;5.88;69.25;99648.59;102947;1319;97877;-73
2021/11/12 11:29:05;;;;;;;97.20;46.40;;;;;;;5.88;69.30;99649.30;102998;1323;108181;-73
2021/11/12 11:31:38;;;;;;;116.10;49.30;;;;;;;5.89;69.39;99648.04;102783;1324;98137;-71
2021/11/12 11:34:12;;;;;;;103.70;46.80;;;;;;;5.86;69.21;99649.02;102970;1318;97897;-72
2021/11/12 11:36:45;;;;;;;;;;;;;;;5.85;69.49;99643.77;102924;1319;111713;-72
2021/11/12 11:39:19;;;;;;;108.20;49.00;;;;;;;5.85;69.42;99640.80;102934;1318;97829;-72
2021/11/12 11:41:53;;;;;;;101.80;44.80;;;;;;;5.84;69.31;99640.69;102969;1319;107875;-74
2021/11/12 11:44:21;;;;;;;;;;;;;;;5.80;69.32;99640.80;103004;1323;96006;-75
2021/11/12 11:46:52;;;;;;;91.80;44.10;;;;;;;5.77;69.46;99635.14;102904;1318;97866;-72
2021/11/12 11:49:28;;;;;;;92.30;44.50;;;;;;;5.78;69.53;99632.62;102923;1325;111574;-73
2021/11/12 11:52:04;;;;;;;98.70;45.00;;;;;;;5.81;69.56;99625.45;102984;1318;97929;-74
2021/11/12 11:54:44;;;;;;;101.90;48.00;;;;;;;5.86;69.61;99621.23;102761;1321;107863;-74
2021/11/12 11:57:18;;;;;;;89.70;43.30;;;;;;;5.86;69.50;99622.63;102783;1322;98403;-74
2021/11/12 11:59:47;;;;;;;97.40;45.00;;;;;;;5.87;69.45;99621.88;102805;1326;97915;-74
2021/11/12 12:02:22;;;;;;;100.30;46.50;;;;;;;5.88;69.54;99620.25;102934;1319;111576;-73
2021/11/12 12:04:57;;;;;;;101.00;45.60;;;;;;;5.90;69.57;99621.55;102821;1321;95211;-70
2021/11/12 12:07:40;;;;;;;96.00;43.70;;;;;;;5.93;69.62;99621.94;102891;1319;107855;-71
2021/11/12 12:10:25;;;;;;;103.70;48.10;;;;;;;5.94;69.46;99617.70;102894;1318;97911;-71
2021/11/12 12:13:03;;;;;;;95.70;44.20;;;;;;;5.95;69.65;99613.94;102930;1319;97890;-72
2021/11/12 12:15:37;;;;;;;102.10;48.10;;;;;;;5.97;69.57;99611.04;102966;1319;109841;-72
2021/11/12 12:18:15;;;;;;;101.70;47.10;;;;;;;5.97;69.44;99608.91;102951;1319;97973;-74
2021/11/12 12:21:48;;;;;;;101.60;47.50;;;;;;;5.97;69.49;99604.51;102762;1322;107855;-75
2021/11/12 13:25:58;;;;;;;92.00;45.70;;;;;;;6.22;69.64;99588.30;102975;1319;95220;-72
2021/11/12 13:28:41;;;;;;;90.50;44.00;;;;;;;6.15;69.36;99587.92;103005;1316;112429;-72
2021/11/12 13:31:23;;;;;;;95.30;49.00;;;;;;;6.08;69.64;99586.79;102890;1319;95357;-73
2021/11/12 13:34:05;;;;;;;71.90;36.40;;;;;;;6.06;69.71;99584.09;102968;1319;107742;-71
2021/11/12 13:36:48;;;;;;;99.50;48.70;;;;;;;6.07;69.92;99587.91;102938;1319;96561;-72
2021/11/12 13:39:19;;;;;;;96.30;48.70;;;;;;;6.09;69.92;99587.99;102851;1322;98018;-73
2021/11/12 13:41:55;;;;;;;103.10;49.40;;;;;;;6.11;69.89;99588.77;103054;1320;111611;-73
2021/11/12 13:44:32;;;;;;;95.80;48.00;;;;;;;6.13;69.65;99583.23;103029;1322;95220;-72
2021/11/12 13:47:08;;;;;;;132.10;69.90;;;;;;;6.10;69.60;99584.43;103014;1318;108024;-72
2021/11/12 13:49:49;;;;;;;100.80;51.20;;;;;;;6.09;69.72;99586.25;102974;1318;97976;-73
2021/11/12 13:52:18;;;;;;;93.40;48.40;;;;;;;6.09;69.95;99591.87;102959;1318;96267;-72
2021/11/12 13:54:48;;;;;;;97.60;49.60;;;;;;;6.10;69.91;99590.05;102811;1320;110522;-72
2021/11/12 13:57:26;;;;;;;100.00;46.60;;;;;;;6.10;70.03;99585.66;102928;1325;96499;-73
2021/11/12 13:59:58;;;;;;;102.20;50.10;;;;;;;6.09;69.78;99584.10;102996;1322;107829;-74
2021/11/12 14:02:30;;;;;;;106.40;52.50;;;;;;;6.09;70.01;99581.83;102868;1318;97892;-75
2021/11/12 14:05:10;;;;;;;102.80;51.50;;;;;;;6.10;70.05;99580.58;102921;1316;95294;-74
2021/11/12 14:07:44;;;;;;;102.10;50.80;;;;;;;6.11;70.04;99575.73;102952;1319;110416;-71
2021/11/12 14:10:17;;;;;;;105.00;52.00;;;;;;;6.10;70.18;99574.19;102906;1319;97931;-71
2021/11/12 14:13:02;;;;;;;103.30;50.20;;;;;;;6.10;70.09;99573.83;102877;1319;107797;-72
2021/11/12 14:15:41;;;;;;;100.50;48.20;;;;;;;6.10;69.98;99570.70;102910;1318;97933;-73
2021/11/12 14:18:21;;;;;;;101.80;50.90;;;;;;;6.09;70.14;99570.38;102921;1326;97914;-73
2021/11/12 14:35:12;;;;;;;107.90;54.10;;;;;;;6.10;70.16;99574.02;102903;1319;112130;-74
2021/11/12 14:46:38;;;;;;;101.30;50.40;;;;;;;5.84;69.93;99563.20;102607;1325;98060;-77
2021/11/12 14:52:10;;;;;;;108.30;51.00;;;;;;;5.80;70.17;99561.98;102895;1321;95297;-76
2021/11/12 14:54:51;;;;;;;105.00;50.30;;;;;;;5.82;70.22;99560.86;102891;1318;107858;-78
2021/11/12 14:57:30;;;;;;;101.60;53.40;;;;;;;5.83;70.20;99565.03;102729;1322;97979;-75
2021/11/12 15:00:06;;;;;;;103.60;51.40;;;;;;;5.85;70.20;99567.39;102877;1320;97987;-74
2021/11/12 15:02:36;;;;;;;102.60;52.00;;;;;;;5.86;70.16;99565.96;102953;1319;112514;-76
2021/11/12 15:05:11;;;;;;;93.60;47.90;;;;;;;5.86;70.21;99569.63;102915;1319;96413;-73
2021/11/12 15:07:46;;;;;;;96.60;48.40;;;;;;;5.86;70.06;99567.71;102932;1318;107875;-75
2021/11/12 15:10:22;;;;;;;93.70;48.80;;;;;;;5.86;70.37;99571.41;102901;1319;95387;-74
2021/11/12 15:12:57;;;;;;;105.40;53.10;;;;;;;5.86;70.36;99572.09;102911;1318;95998;-74
2021/11/12 15:15:26;;;;;;;121.90;59.20;;;;;;;5.88;70.45;99570.27;102892;1325;111386;-73
2021/11/12 15:17:55;;;;;;;112.40;55.70;;;;;;;5.88;70.29;99570.24;102933;1318;98026;-74
2021/11/12 15:20:26;;;;;;;116.90;57.00;;;;;;;5.88;70.45;99567.42;102839;1319;107849;-75
2021/11/12 15:33:28;;;;;;;116.50;60.80;;;;;;;5.86;70.35;99572.29;102964;1325;107833;-79
2021/11/12 15:36:02;;;;;;;112.70;59.00;;;;;;;5.86;70.30;99571.91;102914;1318;98791;-74
2021/11/12 15:38:35;;;;;;;;;;;;;;;5.86;70.42;99569.83;102972;1318;97925;-72
2021/11/12 15:41:10;;;;;;;110.80;54.50;;;;;;;5.83;70.46;99569.61;102934;1319;111880;-70
2021/11/12 15:43:58;;;;;;;;;;;;;;;5.82;70.37;99570.54;102900;1318;96313;-73
2021/11/12 15:46:38;;;;;;;116.30;55.80;;;;;;;5.78;70.34;99567.70;102995;1319;107664;-74
2021/11/12 15:49:08;;;;;;;111.10;55.10;;;;;;;5.78;70.48;99563.83;103044;1319;97989;-73
2021/11/12 15:51:44;;;;;;;110.70;56.20;;;;;;;5.79;70.45;99567.84;102938;1319;97538;-74
2021/11/12 16:18:56;;;;;;;148.10;72.50;;;;;;;5.79;70.54;99589.14;102845;1322;97972;-72
2021/11/12 16:26:22;;;;;;;134.90;64.10;;;;;;;5.80;70.50;99588.21;103059;1322;107855;-72
2021/11/12 16:31:35;;;;;;;140.60;71.00;;;;;;;5.80;70.66;99586.61;102947;1318;97962;-73
2021/11/12 16:34:25;;;;;;;144.40;72.90;;;;;;;5.81;70.40;99581.84;102939;1319;111515;-72
2021/11/12 16:37:02;;;;;;;137.90;69.90;;;;;;;5.81;70.66;99583.58;102937;1318;97912;-72
2021/11/12 16:39:50;;;;;;;141.80;73.50;;;;;;;5.82;70.55;99583.88;102938;1319;107973;-73
2021/11/12 17:47:07;;;;;;;121.40;60.30;;;;;;;5.77;70.80;99561.92;102927;1318;107960;-74
2021/11/12 17:49:53;;;;;;;121.90;59.50;;;;;;;5.78;70.69;99561.55;103008;1319;97912;-74
2021/11/12 17:52:52;;;;;;;123.50;61.30;;;;;;;5.78;70.59;99559.08;102973;1312;97987;-75
2021/11/12 18:03:50;;;;;;;130.60;64.00;;;;;;;5.67;70.80;99555.37;102893;1319;98034;-73
2021/11/12 18:06:24;;;;;;;147.20;72.10;;;;;;;5.71;70.79;99562.40;102728;1318;98001;-74
2021/11/12 18:14:26;;;;;;;139.40;64.10;;;;;;;5.67;70.66;99557.97;102734;1318;107856;-73
2021/11/12 18:22:41;;;;;;;150.80;68.90;;;;;;;5.60;70.79;99550.36;103047;1320;112151;-75
2021/11/12 21:46:12;;;;;;;106.00;47.60;;;;;;;4.59;71.93;99504.70;102951;1319;111503;-75
2021/11/12 21:48:45;;;;;;;103.80;46.40;;;;;;;4.61;71.88;99501.13;102875;1326;98009;-76
2021/11/12 21:51:23;;;;;;;98.00;43.70;;;;;;;4.60;72.01;99501.31;102858;1320;106847;-76
2021/11/12 21:53:54;;;;;;;99.50;45.70;;;;;;;4.62;72.01;99503.52;103005;1325;97953;-75
2021/11/12 21:56:23;;;;;;;143.00;69.70;;;;;;;4.64;72.11;99501.88;102822;1323;97962;-74
2021/11/12 21:58:52;;;;;;;117.10;53.40;;;;;;;4.67;72.13;99501.77;102911;1323;111494;-74
2021/11/12 22:01:22;;;;;;;105.70;48.90;;;;;;;4.72;72.19;99501.54;102898;1320;99786;-76
2021/11/12 22:03:53;;;;;;;98.90;44.40;;;;;;;4.73;72.19;99499.89;102948;1321;107706;-76